sensor_id;sensor_type;location;lat;lon;timestamp;P1;durP1;ratioP1;P2;durP2;ratioP2
4409;SDS011;2218;51.408;7.208;2023-08-08T00:01:37;0.70;;;0.60;;
4409;SDS011;2218;51.408;7.208;2023-08-08T00:04:07;0.70;;;0.60;;
4409;SDS011;2218;51.408;7.208;2023-08-08T00:06:34;0.80;;;0.70;;
4409;SDS011;2218;51.408;7.208;2023-08-08T00:09:01;0.70;;;0.67;;
4409;SDS011;2218;51.408;7.208;2023-08-08T00:11:29;0.80;;;0.73;;
4409;SDS011;2218;51.408;7.208;2023-08-08T00:13:58;0.70;;;0.60;;
4409;SDS011;2218;51.408;7.208;2023-08-08T00:16:25;0.70;;;0.60;;
4409;SDS011;2218;51.408;7.208;2023-08-08T00:18:52;0.70;;;0.60;;
4409;SDS011;2218;51.408;7.208;2023-08-08T00:21:19;0.80;;;0.70;;
4409;SDS011;2218;51.408;7.208;2023-08-08T00:23:47;0.70;;;0.50;;
4409;SDS011;2218;51.408;7.208;2023-08-08T00:26:14;0.70;;;0.60;;
4409;SDS011;2218;51.408;7.208;2023-08-08T00:28:40;0.70;;;0.67;;
4409;SDS011;2218;51.408;7.208;2023-08-08T00:31:09;0.70;;;0.60;;
4409;SDS011;2218;51.408;7.208;2023-08-08T00:33:37;0.80;;;0.70;;
4409;SDS011;2218;51.408;7.208;2023-08-08T00:36:04;0.80;;;0.70;;
4409;SDS011;2218;51.408;7.208;2023-08-08T00:38:31;0.80;;;0.70;;
4409;SDS011;2218;51.408;7.208;2023-08-08T00:40:58;0.80;;;0.70;;
4409;SDS011;2218;51.408;7.208;2023-08-08T00:43:25;0.70;;;0.60;;
4409;SDS011;2218;51.408;7.208;2023-08-08T00:45:52;0.80;;;0.70;;
4409;SDS011;2218;51.408;7.208;2023-08-08T00:48:21;0.80;;;0.67;;
4409;SDS011;2218;51.408;7.208;2023-08-08T00:50:48;0.73;;;0.63;;
4409;SDS011;2218;51.408;7.208;2023-08-08T00:53:16;0.70;;;0.60;;
4409;SDS011;2218;51.408;7.208;2023-08-08T00:55:44;0.80;;;0.73;;
4409;SDS011;2218;51.408;7.208;2023-08-08T00:58:12;0.70;;;0.67;;
4409;SDS011;2218;51.408;7.208;2023-08-08T01:00:40;0.80;;;0.60;;
4409;SDS011;2218;51.408;7.208;2023-08-08T01:03:08;0.70;;;0.60;;
4409;SDS011;2218;51.408;7.208;2023-08-08T01:05:37;0.90;;;0.60;;
4409;SDS011;2218;51.408;7.208;2023-08-08T01:08:19;0.80;;;0.70;;
4409;SDS011;2218;51.408;7.208;2023-08-08T01:10:57;0.80;;;0.60;;
4409;SDS011;2218;51.408;7.208;2023-08-08T01:13:25;0.90;;;0.60;;
4409;SDS011;2218;51.408;7.208;2023-08-08T01:15:56;0.83;;;0.77;;
4409;SDS011;2218;51.408;7.208;2023-08-08T01:18:24;1.37;;;0.70;;
4409;SDS011;2218;51.408;7.208;2023-08-08T01:20:57;0.90;;;0.60;;
4409;SDS011;2218;51.408;7.208;2023-08-08T01:23:26;0.70;;;0.57;;
4409;SDS011;2218;51.408;7.208;2023-08-08T01:26:01;0.80;;;0.70;;
4409;SDS011;2218;51.408;7.208;2023-08-08T01:28:29;0.80;;;0.70;;
4409;SDS011;2218;51.408;7.208;2023-08-08T01:30:56;0.77;;;0.70;;
4409;SDS011;2218;51.408;7.208;2023-08-08T01:33:23;0.70;;;0.60;;
4409;SDS011;2218;51.408;7.208;2023-08-08T01:35:51;0.70;;;0.60;;
4409;SDS011;2218;51.408;7.208;2023-08-08T01:38:40;0.70;;;0.60;;
4409;SDS011;2218;51.408;7.208;2023-08-08T01:41:12;0.90;;;0.80;;
4409;SDS011;2218;51.408;7.208;2023-08-08T01:43:40;0.70;;;0.60;;
4409;SDS011;2218;51.408;7.208;2023-08-08T01:46:08;0.80;;;0.60;;
4409;SDS011;2218;51.408;7.208;2023-08-08T01:48:35;0.77;;;0.60;;
4409;SDS011;2218;51.408;7.208;2023-08-08T01:51:02;0.90;;;0.50;;
4409;SDS011;2218;51.408;7.208;2023-08-08T01:53:29;0.70;;;0.50;;
4409;SDS011;2218;51.408;7.208;2023-08-08T01:55:56;0.80;;;0.60;;
4409;SDS011;2218;51.408;7.208;2023-08-08T01:58:25;0.70;;;0.60;;
4409;SDS011;2218;51.408;7.208;2023-08-08T02:00:51;0.97;;;0.80;;
4409;SDS011;2218;51.408;7.208;2023-08-08T02:03:18;0.80;;;0.80;;
4409;SDS011;2218;51.408;7.208;2023-08-08T02:05:45;0.80;;;0.70;;
4409;SDS011;2218;51.408;7.208;2023-08-08T02:08:13;0.70;;;0.60;;
4409;SDS011;2218;51.408;7.208;2023-08-08T02:10:40;0.70;;;0.60;;
4409;SDS011;2218;51.408;7.208;2023-08-08T02:13:07;0.80;;;0.70;;
4409;SDS011;2218;51.408;7.208;2023-08-08T02:15:35;0.80;;;0.70;;
4409;SDS011;2218;51.408;7.208;2023-08-08T02:18:02;0.70;;;0.50;;
4409;SDS011;2218;51.408;7.208;2023-08-08T02:20:30;0.73;;;0.73;;
4409;SDS011;2218;51.408;7.208;2023-08-08T02:22:57;0.90;;;0.60;;
4409;SDS011;2218;51.408;7.208;2023-08-08T02:25:24;0.70;;;0.60;;
4409;SDS011;2218;51.408;7.208;2023-08-08T02:27:51;0.70;;;0.60;;
4409;SDS011;2218;51.408;7.208;2023-08-08T02:30:18;0.80;;;0.70;;
4409;SDS011;2218;51.408;7.208;2023-08-08T02:32:47;0.80;;;0.70;;
4409;SDS011;2218;51.408;7.208;2023-08-08T02:35:14;0.70;;;0.60;;
4409;SDS011;2218;51.408;7.208;2023-08-08T02:37:41;0.90;;;0.70;;
4409;SDS011;2218;51.408;7.208;2023-08-08T02:40:08;0.70;;;0.60;;
4409;SDS011;2218;51.408;7.208;2023-08-08T02:42:36;0.70;;;0.60;;
4409;SDS011;2218;51.408;7.208;2023-08-08T02:45:03;0.80;;;0.80;;
4409;SDS011;2218;51.408;7.208;2023-08-08T02:47:32;0.90;;;0.70;;
4409;SDS011;2218;51.408;7.208;2023-08-08T02:50:01;0.70;;;0.60;;
4409;SDS011;2218;51.408;7.208;2023-08-08T02:52:28;0.70;;;0.70;;
4409;SDS011;2218;51.408;7.208;2023-08-08T02:54:55;0.70;;;0.50;;
4409;SDS011;2218;51.408;7.208;2023-08-08T02:57:22;0.70;;;0.60;;
4409;SDS011;2218;51.408;7.208;2023-08-08T02:59:50;0.80;;;0.70;;
4409;SDS011;2218;51.408;7.208;2023-08-08T03:02:16;0.80;;;0.73;;
4409;SDS011;2218;51.408;7.208;2023-08-08T03:04:44;0.70;;;0.50;;
4409;SDS011;2218;51.408;7.208;2023-08-08T03:07:12;0.70;;;0.50;;
4409;SDS011;2218;51.408;7.208;2023-08-08T03:09:39;0.70;;;0.60;;
4409;SDS011;2218;51.408;7.208;2023-08-08T03:12:08;0.77;;;0.70;;
4409;SDS011;2218;51.408;7.208;2023-08-08T03:14:36;0.70;;;0.50;;
4409;SDS011;2218;51.408;7.208;2023-08-08T03:17:04;0.70;;;0.53;;
4409;SDS011;2218;51.408;7.208;2023-08-08T03:19:31;0.83;;;0.63;;
4409;SDS011;2218;51.408;7.208;2023-08-08T03:22:00;0.90;;;0.80;;
4409;SDS011;2218;51.408;7.208;2023-08-08T03:24:28;0.80;;;0.80;;
4409;SDS011;2218;51.408;7.208;2023-08-08T03:26:55;0.70;;;0.60;;
4409;SDS011;2218;51.408;7.208;2023-08-08T03:29:22;0.90;;;0.53;;
4409;SDS011;2218;51.408;7.208;2023-08-08T03:31:49;0.80;;;0.63;;
4409;SDS011;2218;51.408;7.208;2023-08-08T03:34:17;0.70;;;0.60;;
4409;SDS011;2218;51.408;7.208;2023-08-08T03:36:44;0.70;;;0.60;;
4409;SDS011;2218;51.408;7.208;2023-08-08T03:39:11;0.80;;;0.67;;
4409;SDS011;2218;51.408;7.208;2023-08-08T03:41:40;0.70;;;0.63;;
4409;SDS011;2218;51.408;7.208;2023-08-08T03:44:07;0.70;;;0.60;;
4409;SDS011;2218;51.408;7.208;2023-08-08T03:46:34;0.80;;;0.60;;
4409;SDS011;2218;51.408;7.208;2023-08-08T03:49:01;0.70;;;0.60;;
4409;SDS011;2218;51.408;7.208;2023-08-08T03:51:28;0.70;;;0.60;;
4409;SDS011;2218;51.408;7.208;2023-08-08T03:53:56;0.70;;;0.60;;
4409;SDS011;2218;51.408;7.208;2023-08-08T03:56:23;0.70;;;0.60;;
4409;SDS011;2218;51.408;7.208;2023-08-08T03:58:51;0.70;;;0.60;;
4409;SDS011;2218;51.408;7.208;2023-08-08T04:01:18;0.70;;;0.60;;
4409;SDS011;2218;51.408;7.208;2023-08-08T04:03:45;0.70;;;0.60;;
4409;SDS011;2218;51.408;7.208;2023-08-08T04:06:12;0.70;;;0.60;;
4409;SDS011;2218;51.408;7.208;2023-08-08T04:08:39;0.70;;;0.60;;
4409;SDS011;2218;51.408;7.208;2023-08-08T04:11:07;0.70;;;0.60;;
4409;SDS011;2218;51.408;7.208;2023-08-08T04:13:34;0.80;;;0.60;;
4409;SDS011;2218;51.408;7.208;2023-08-08T04:16:03;0.70;;;0.60;;
4409;SDS011;2218;51.408;7.208;2023-08-08T04:18:30;0.80;;;0.70;;
4409;SDS011;2218;51.408;7.208;2023-08-08T04:20:57;1.00;;;0.90;;
4409;SDS011;2218;51.408;7.208;2023-08-08T04:23:24;0.70;;;0.60;;
4409;SDS011;2218;51.408;7.208;2023-08-08T04:25:51;0.70;;;0.60;;
4409;SDS011;2218;51.408;7.208;2023-08-08T04:28:18;0.90;;;0.70;;
4409;SDS011;2218;51.408;7.208;2023-08-08T04:30:45;0.70;;;0.60;;
4409;SDS011;2218;51.408;7.208;2023-08-08T04:33:14;0.77;;;0.67;;
4409;SDS011;2218;51.408;7.208;2023-08-08T04:35:41;0.80;;;0.70;;
4409;SDS011;2218;51.408;7.208;2023-08-08T04:38:08;0.77;;;0.60;;
4409;SDS011;2218;51.408;7.208;2023-08-08T04:40:35;0.70;;;0.60;;
4409;SDS011;2218;51.408;7.208;2023-08-08T04:43:02;0.70;;;0.53;;
4409;SDS011;2218;51.408;7.208;2023-08-08T04:45:29;0.70;;;0.60;;
4409;SDS011;2218;51.408;7.208;2023-08-08T04:47:56;0.70;;;0.60;;
4409;SDS011;2218;51.408;7.208;2023-08-08T04:50:24;0.80;;;0.77;;
4409;SDS011;2218;51.408;7.208;2023-08-08T04:52:51;0.90;;;0.70;;
4409;SDS011;2218;51.408;7.208;2023-08-08T04:55:18;0.80;;;0.70;;
4409;SDS011;2218;51.408;7.208;2023-08-08T04:57:45;0.70;;;0.50;;
4409;SDS011;2218;51.408;7.208;2023-08-08T05:00:13;0.70;;;0.60;;
4409;SDS011;2218;51.408;7.208;2023-08-08T05:02:40;0.70;;;0.60;;
4409;SDS011;2218;51.408;7.208;2023-08-08T05:05:07;0.80;;;0.70;;
4409;SDS011;2218;51.408;7.208;2023-08-08T05:07:36;0.70;;;0.60;;
4409;SDS011;2218;51.408;7.208;2023-08-08T05:10:04;0.70;;;0.60;;
4409;SDS011;2218;51.408;7.208;2023-08-08T05:12:31;1.00;;;0.60;;
4409;SDS011;2218;51.408;7.208;2023-08-08T05:14:58;0.80;;;0.63;;
4409;SDS011;2218;51.408;7.208;2023-08-08T05:17:25;0.83;;;0.60;;
4409;SDS011;2218;51.408;7.208;2023-08-08T05:19:56;0.70;;;0.60;;
4409;SDS011;2218;51.408;7.208;2023-08-08T05:22:23;0.70;;;0.60;;
4409;SDS011;2218;51.408;7.208;2023-08-08T05:24:51;0.70;;;0.60;;
4409;SDS011;2218;51.408;7.208;2023-08-08T05:27:18;0.80;;;0.70;;
4409;SDS011;2218;51.408;7.208;2023-08-08T05:29:45;0.80;;;0.80;;
4409;SDS011;2218;51.408;7.208;2023-08-08T05:32:12;0.80;;;0.70;;
4409;SDS011;2218;51.408;7.208;2023-08-08T05:34:39;0.70;;;0.60;;
4409;SDS011;2218;51.408;7.208;2023-08-08T05:37:06;0.70;;;0.60;;
4409;SDS011;2218;51.408;7.208;2023-08-08T05:39:33;0.70;;;0.53;;
4409;SDS011;2218;51.408;7.208;2023-08-08T05:42:01;0.80;;;0.80;;
4409;SDS011;2218;51.408;7.208;2023-08-08T05:44:29;0.70;;;0.70;;
4409;SDS011;2218;51.408;7.208;2023-08-08T05:46:56;0.80;;;0.70;;
4409;SDS011;2218;51.408;7.208;2023-08-08T05:49:23;0.80;;;0.70;;
4409;SDS011;2218;51.408;7.208;2023-08-08T05:51:50;0.80;;;0.80;;
4409;SDS011;2218;51.408;7.208;2023-08-08T05:54:17;0.93;;;0.63;;
4409;SDS011;2218;51.408;7.208;2023-08-08T05:56:44;0.80;;;0.80;;
4409;SDS011;2218;51.408;7.208;2023-08-08T05:59:13;0.80;;;0.70;;
4409;SDS011;2218;51.408;7.208;2023-08-08T06:01:40;1.17;;;0.60;;
4409;SDS011;2218;51.408;7.208;2023-08-08T06:04:07;1.00;;;0.80;;
4409;SDS011;2218;51.408;7.208;2023-08-08T06:06:33;0.80;;;0.80;;
4409;SDS011;2218;51.408;7.208;2023-08-08T06:09:00;0.90;;;0.60;;
4409;SDS011;2218;51.408;7.208;2023-08-08T06:11:30;1.00;;;1.00;;
4409;SDS011;2218;51.408;7.208;2023-08-08T06:13:57;0.70;;;0.67;;
4409;SDS011;2218;51.408;7.208;2023-08-08T06:16:25;1.00;;;0.80;;
4409;SDS011;2218;51.408;7.208;2023-08-08T06:18:52;0.90;;;0.90;;
4409;SDS011;2218;51.408;7.208;2023-08-08T06:21:19;2.00;;;0.77;;
4409;SDS011;2218;51.408;7.208;2023-08-08T06:23:46;0.87;;;0.87;;
4409;SDS011;2218;51.408;7.208;2023-08-08T06:26:14;0.70;;;0.70;;
4409;SDS011;2218;51.408;7.208;2023-08-08T06:28:41;1.73;;;1.10;;
4409;SDS011;2218;51.408;7.208;2023-08-08T06:31:08;1.00;;;0.90;;
4409;SDS011;2218;51.408;7.208;2023-08-08T06:33:36;0.80;;;0.80;;
4409;SDS011;2218;51.408;7.208;2023-08-08T06:36:03;2.27;;;0.90;;
4409;SDS011;2218;51.408;7.208;2023-08-08T06:38:31;2.10;;;0.90;;
4409;SDS011;2218;51.408;7.208;2023-08-08T06:40:59;0.87;;;0.87;;
4409;SDS011;2218;51.408;7.208;2023-08-08T06:43:26;1.10;;;0.77;;
4409;SDS011;2218;51.408;7.208;2023-08-08T06:45:53;0.90;;;0.70;;
4409;SDS011;2218;51.408;7.208;2023-08-08T06:48:20;0.80;;;0.80;;
4409;SDS011;2218;51.408;7.208;2023-08-08T06:50:48;0.70;;;0.70;;
4409;SDS011;2218;51.408;7.208;2023-08-08T06:53:15;1.27;;;1.03;;
4409;SDS011;2218;51.408;7.208;2023-08-08T06:55:42;1.30;;;1.20;;
4409;SDS011;2218;51.408;7.208;2023-08-08T06:58:09;1.00;;;0.90;;
4409;SDS011;2218;51.408;7.208;2023-08-08T07:00:36;0.97;;;0.97;;
4409;SDS011;2218;51.408;7.208;2023-08-08T07:03:03;1.00;;;0.90;;
4409;SDS011;2218;51.408;7.208;2023-08-08T07:05:31;0.97;;;0.97;;
4409;SDS011;2218;51.408;7.208;2023-08-08T07:07:59;1.07;;;0.97;;
4409;SDS011;2218;51.408;7.208;2023-08-08T07:10:27;1.20;;;1.10;;
4409;SDS011;2218;51.408;7.208;2023-08-08T07:12:54;0.73;;;0.73;;
4409;SDS011;2218;51.408;7.208;2023-08-08T07:15:21;1.13;;;1.03;;
4409;SDS011;2218;51.408;7.208;2023-08-08T07:17:49;1.03;;;0.93;;
4409;SDS011;2218;51.408;7.208;2023-08-08T07:20:16;0.93;;;0.87;;
4409;SDS011;2218;51.408;7.208;2023-08-08T07:22:43;2.40;;;0.90;;
4409;SDS011;2218;51.408;7.208;2023-08-08T07:25:11;1.30;;;0.90;;
4409;SDS011;2218;51.408;7.208;2023-08-08T07:27:38;1.30;;;1.20;;
4409;SDS011;2218;51.408;7.208;2023-08-08T07:30:05;1.70;;;1.30;;
4409;SDS011;2218;51.408;7.208;2023-08-08T07:32:33;1.10;;;1.10;;
4409;SDS011;2218;51.408;7.208;2023-08-08T07:35:00;1.30;;;1.20;;
4409;SDS011;2218;51.408;7.208;2023-08-08T07:37:30;1.10;;;1.00;;
4409;SDS011;2218;51.408;7.208;2023-08-08T07:39:58;1.27;;;1.10;;
4409;SDS011;2218;51.408;7.208;2023-08-08T07:42:27;1.33;;;1.23;;
4409;SDS011;2218;51.408;7.208;2023-08-08T07:44:53;2.50;;;1.37;;
4409;SDS011;2218;51.408;7.208;2023-08-08T07:47:20;1.20;;;1.20;;
4409;SDS011;2218;51.408;7.208;2023-08-08T07:49:47;1.27;;;1.17;;
4409;SDS011;2218;51.408;7.208;2023-08-08T07:52:14;5.03;;;1.37;;
4409;SDS011;2218;51.408;7.208;2023-08-08T07:54:41;1.20;;;1.10;;
4409;SDS011;2218;51.408;7.208;2023-08-08T07:57:08;1.20;;;1.10;;
4409;SDS011;2218;51.408;7.208;2023-08-08T07:59:37;2.43;;;1.10;;
4409;SDS011;2218;51.408;7.208;2023-08-08T08:02:04;3.37;;;1.20;;
4409;SDS011;2218;51.408;7.208;2023-08-08T08:04:32;1.40;;;1.30;;
4409;SDS011;2218;51.408;7.208;2023-08-08T08:07:00;2.80;;;1.20;;
4409;SDS011;2218;51.408;7.208;2023-08-08T08:09:27;0.80;;;0.80;;
4409;SDS011;2218;51.408;7.208;2023-08-08T08:11:54;0.90;;;0.90;;
4409;SDS011;2218;51.408;7.208;2023-08-08T08:14:21;1.30;;;1.20;;
4409;SDS011;2218;51.408;7.208;2023-08-08T08:16:50;1.20;;;1.10;;
4409;SDS011;2218;51.408;7.208;2023-08-08T08:19:17;1.27;;;1.17;;
4409;SDS011;2218;51.408;7.208;2023-08-08T08:21:45;1.10;;;0.90;;
4409;SDS011;2218;51.408;7.208;2023-08-08T08:24:12;1.40;;;1.30;;
4409;SDS011;2218;51.408;7.208;2023-08-08T08:26:39;1.03;;;0.97;;
4409;SDS011;2218;51.408;7.208;2023-08-08T08:29:06;1.20;;;1.10;;
4409;SDS011;2218;51.408;7.208;2023-08-08T08:31:33;1.30;;;1.20;;
4409;SDS011;2218;51.408;7.208;2023-08-08T08:34:03;2.63;;;1.13;;
4409;SDS011;2218;51.408;7.208;2023-08-08T08:36:30;1.37;;;1.27;;
4409;SDS011;2218;51.408;7.208;2023-08-08T08:38:57;0.90;;;0.90;;
4409;SDS011;2218;51.408;7.208;2023-08-08T08:41:26;1.37;;;1.27;;
4409;SDS011;2218;51.408;7.208;2023-08-08T08:43:54;1.33;;;1.03;;
4409;SDS011;2218;51.408;7.208;2023-08-08T08:46:21;1.23;;;1.13;;
4409;SDS011;2218;51.408;7.208;2023-08-08T08:48:53;1.13;;;1.03;;
4409;SDS011;2218;51.408;7.208;2023-08-08T08:51:23;1.30;;;1.20;;
4409;SDS011;2218;51.408;7.208;2023-08-08T08:53:50;1.10;;;1.10;;
4409;SDS011;2218;51.408;7.208;2023-08-08T08:56:18;1.10;;;1.00;;
4409;SDS011;2218;51.408;7.208;2023-08-08T08:58:48;1.87;;;1.03;;
4409;SDS011;2218;51.408;7.208;2023-08-08T09:01:15;0.83;;;0.83;;
4409;SDS011;2218;51.408;7.208;2023-08-08T09:03:44;1.10;;;1.00;;
4409;SDS011;2218;51.408;7.208;2023-08-08T09:06:11;0.83;;;0.83;;
4409;SDS011;2218;51.408;7.208;2023-08-08T09:08:42;1.07;;;0.97;;
4409;SDS011;2218;51.408;7.208;2023-08-08T09:11:12;1.17;;;1.10;;
4409;SDS011;2218;51.408;7.208;2023-08-08T09:13:39;5.40;;;1.00;;
4409;SDS011;2218;51.408;7.208;2023-08-08T09:16:07;1.17;;;1.07;;
4409;SDS011;2218;51.408;7.208;2023-08-08T09:18:35;1.00;;;0.90;;
4409;SDS011;2218;51.408;7.208;2023-08-08T09:21:03;1.00;;;0.97;;
4409;SDS011;2218;51.408;7.208;2023-08-08T09:23:30;1.60;;;1.00;;
4409;SDS011;2218;51.408;7.208;2023-08-08T09:25:58;0.97;;;0.97;;
4409;SDS011;2218;51.408;7.208;2023-08-08T09:28:25;2.10;;;1.00;;
4409;SDS011;2218;51.408;7.208;2023-08-08T09:30:52;1.10;;;1.00;;
4409;SDS011;2218;51.408;7.208;2023-08-08T09:33:19;5.70;;;1.03;;
4409;SDS011;2218;51.408;7.208;2023-08-08T09:35:46;1.00;;;1.00;;
4409;SDS011;2218;51.408;7.208;2023-08-08T09:38:13;1.13;;;1.03;;
4409;SDS011;2218;51.408;7.208;2023-08-08T09:40:40;3.60;;;1.17;;
4409;SDS011;2218;51.408;7.208;2023-08-08T09:43:08;3.43;;;1.20;;
4409;SDS011;2218;51.408;7.208;2023-08-08T09:45:37;6.97;;;1.50;;
4409;SDS011;2218;51.408;7.208;2023-08-08T09:48:07;2.50;;;1.30;;
4409;SDS011;2218;51.408;7.208;2023-08-08T09:50:34;1.20;;;1.10;;
4409;SDS011;2218;51.408;7.208;2023-08-08T09:53:02;3.33;;;1.00;;
4409;SDS011;2218;51.408;7.208;2023-08-08T09:55:30;7.00;;;0.80;;
4409;SDS011;2218;51.408;7.208;2023-08-08T09:58:00;1.83;;;1.03;;
4409;SDS011;2218;51.408;7.208;2023-08-08T10:00:31;2.17;;;0.97;;
4409;SDS011;2218;51.408;7.208;2023-08-08T10:02:59;3.10;;;1.13;;
4409;SDS011;2218;51.408;7.208;2023-08-08T10:05:27;1.30;;;1.00;;
4409;SDS011;2218;51.408;7.208;2023-08-08T10:07:54;6.07;;;1.17;;
4409;SDS011;2218;51.408;7.208;2023-08-08T10:10:22;3.27;;;1.07;;
4409;SDS011;2218;51.408;7.208;2023-08-08T10:12:50;1.90;;;1.10;;
4409;SDS011;2218;51.408;7.208;2023-08-08T10:15:18;2.20;;;1.00;;
4409;SDS011;2218;51.408;7.208;2023-08-08T10:17:46;1.40;;;1.30;;
4409;SDS011;2218;51.408;7.208;2023-08-08T10:20:21;6.10;;;1.30;;
4409;SDS011;2218;51.408;7.208;2023-08-08T10:22:49;0.80;;;0.70;;
4409;SDS011;2218;51.408;7.208;2023-08-08T10:25:22;1.10;;;1.00;;
4409;SDS011;2218;51.408;7.208;2023-08-08T10:28:01;1.13;;;0.80;;
4409;SDS011;2218;51.408;7.208;2023-08-08T10:30:41;0.80;;;0.80;;
4409;SDS011;2218;51.408;7.208;2023-08-08T10:33:18;1.30;;;0.80;;
4409;SDS011;2218;51.408;7.208;2023-08-08T10:35:56;1.00;;;0.90;;
4409;SDS011;2218;51.408;7.208;2023-08-08T10:38:25;1.17;;;0.90;;
4409;SDS011;2218;51.408;7.208;2023-08-08T10:41:04;1.53;;;1.27;;
4409;SDS011;2218;51.408;7.208;2023-08-08T10:43:35;0.87;;;0.87;;
4409;SDS011;2218;51.408;7.208;2023-08-08T10:46:03;1.00;;;1.00;;
4409;SDS011;2218;51.408;7.208;2023-08-08T10:48:32;3.20;;;1.00;;
4409;SDS011;2218;51.408;7.208;2023-08-08T10:50:59;0.97;;;0.87;;
4409;SDS011;2218;51.408;7.208;2023-08-08T10:53:27;0.93;;;0.93;;
4409;SDS011;2218;51.408;7.208;2023-08-08T10:55:58;1.00;;;0.80;;
4409;SDS011;2218;51.408;7.208;2023-08-08T10:58:35;1.40;;;0.80;;
4409;SDS011;2218;51.408;7.208;2023-08-08T11:01:03;1.00;;;0.90;;
4409;SDS011;2218;51.408;7.208;2023-08-08T11:03:35;1.23;;;0.70;;
4409;SDS011;2218;51.408;7.208;2023-08-08T11:06:05;0.83;;;0.83;;
4409;SDS011;2218;51.408;7.208;2023-08-08T11:08:37;0.80;;;0.80;;
4409;SDS011;2218;51.408;7.208;2023-08-08T11:11:04;2.03;;;0.90;;
4409;SDS011;2218;51.408;7.208;2023-08-08T11:13:32;3.10;;;1.03;;
4409;SDS011;2218;51.408;7.208;2023-08-08T11:15:59;3.33;;;1.17;;
4409;SDS011;2218;51.408;7.208;2023-08-08T11:18:27;0.80;;;0.80;;
4409;SDS011;2218;51.408;7.208;2023-08-08T11:20:56;2.20;;;0.97;;
4409;SDS011;2218;51.408;7.208;2023-08-08T11:23:23;4.40;;;1.00;;
4409;SDS011;2218;51.408;7.208;2023-08-08T11:25:50;1.03;;;0.80;;
4409;SDS011;2218;51.408;7.208;2023-08-08T11:28:17;0.80;;;0.80;;
4409;SDS011;2218;51.408;7.208;2023-08-08T11:30:45;1.00;;;0.83;;
4409;SDS011;2218;51.408;7.208;2023-08-08T11:33:13;1.17;;;1.07;;
4409;SDS011;2218;51.408;7.208;2023-08-08T11:35:44;1.10;;;1.00;;
4409;SDS011;2218;51.408;7.208;2023-08-08T11:38:15;1.00;;;0.70;;
4409;SDS011;2218;51.408;7.208;2023-08-08T11:40:43;1.10;;;0.80;;
4409;SDS011;2218;51.408;7.208;2023-08-08T11:43:11;1.00;;;0.90;;
4409;SDS011;2218;51.408;7.208;2023-08-08T11:45:39;1.07;;;0.97;;
4409;SDS011;2218;51.408;7.208;2023-08-08T11:48:07;1.00;;;0.90;;
4409;SDS011;2218;51.408;7.208;2023-08-08T11:50:36;1.77;;;1.03;;
4409;SDS011;2218;51.408;7.208;2023-08-08T11:53:04;0.80;;;0.70;;
4409;SDS011;2218;51.408;7.208;2023-08-08T11:55:32;1.33;;;0.90;;
4409;SDS011;2218;51.408;7.208;2023-08-08T11:58:02;1.27;;;0.73;;
4409;SDS011;2218;51.408;7.208;2023-08-08T12:00:30;1.00;;;0.80;;
4409;SDS011;2218;51.408;7.208;2023-08-08T12:02:57;0.80;;;0.73;;
4409;SDS011;2218;51.408;7.208;2023-08-08T12:05:29;1.00;;;0.90;;
4409;SDS011;2218;51.408;7.208;2023-08-08T12:08:04;0.80;;;0.80;;
4409;SDS011;2218;51.408;7.208;2023-08-08T12:10:33;1.00;;;0.90;;
4409;SDS011;2218;51.408;7.208;2023-08-08T12:13:00;0.73;;;0.70;;
4409;SDS011;2218;51.408;7.208;2023-08-08T12:15:28;1.00;;;0.90;;
4409;SDS011;2218;51.408;7.208;2023-08-08T12:17:57;1.00;;;0.90;;
4409;SDS011;2218;51.408;7.208;2023-08-08T12:20:26;4.60;;;0.73;;
4409;SDS011;2218;51.408;7.208;2023-08-08T12:22:54;2.00;;;0.60;;
4409;SDS011;2218;51.408;7.208;2023-08-08T12:25:21;0.87;;;0.87;;
4409;SDS011;2218;51.408;7.208;2023-08-08T12:27:50;0.93;;;0.83;;
4409;SDS011;2218;51.408;7.208;2023-08-08T12:30:18;0.80;;;0.80;;
4409;SDS011;2218;51.408;7.208;2023-08-08T12:32:45;0.97;;;0.90;;
4409;SDS011;2218;51.408;7.208;2023-08-08T12:35:11;1.73;;;1.10;;
4409;SDS011;2218;51.408;7.208;2023-08-08T12:37:40;0.80;;;0.70;;
4409;SDS011;2218;51.408;7.208;2023-08-08T12:40:08;0.90;;;0.90;;
4409;SDS011;2218;51.408;7.208;2023-08-08T12:42:36;0.80;;;0.80;;
4409;SDS011;2218;51.408;7.208;2023-08-08T12:45:05;1.40;;;0.77;;
4409;SDS011;2218;51.408;7.208;2023-08-08T12:47:33;1.67;;;0.63;;
4409;SDS011;2218;51.408;7.208;2023-08-08T12:50:01;0.83;;;0.63;;
4409;SDS011;2218;51.408;7.208;2023-08-08T12:52:29;0.93;;;0.90;;
4409;SDS011;2218;51.408;7.208;2023-08-08T12:54:56;3.63;;;1.00;;
4409;SDS011;2218;51.408;7.208;2023-08-08T12:57:23;3.53;;;0.90;;
4409;SDS011;2218;51.408;7.208;2023-08-08T12:59:50;1.37;;;1.00;;
4409;SDS011;2218;51.408;7.208;2023-08-08T13:02:18;2.17;;;0.80;;
4409;SDS011;2218;51.408;7.208;2023-08-08T13:04:46;1.27;;;1.17;;
4409;SDS011;2218;51.408;7.208;2023-08-08T13:07:13;0.80;;;0.70;;
4409;SDS011;2218;51.408;7.208;2023-08-08T13:09:40;1.30;;;0.90;;
4409;SDS011;2218;51.408;7.208;2023-08-08T13:12:07;0.80;;;0.70;;
4409;SDS011;2218;51.408;7.208;2023-08-08T13:14:34;3.33;;;0.90;;
4409;SDS011;2218;51.408;7.208;2023-08-08T13:17:01;0.97;;;0.87;;
4409;SDS011;2218;51.408;7.208;2023-08-08T13:19:30;3.80;;;0.90;;
4409;SDS011;2218;51.408;7.208;2023-08-08T13:21:56;4.10;;;1.10;;
4409;SDS011;2218;51.408;7.208;2023-08-08T13:24:24;2.10;;;0.70;;
4409;SDS011;2218;51.408;7.208;2023-08-08T13:26:51;1.77;;;0.80;;
4409;SDS011;2218;51.408;7.208;2023-08-08T13:29:18;0.80;;;0.70;;
4409;SDS011;2218;51.408;7.208;2023-08-08T13:31:45;1.57;;;1.03;;
4409;SDS011;2218;51.408;7.208;2023-08-08T13:34:12;0.80;;;0.73;;
4409;SDS011;2218;51.408;7.208;2023-08-08T13:36:40;5.23;;;0.80;;
4409;SDS011;2218;51.408;7.208;2023-08-08T13:39:08;0.80;;;0.80;;
4409;SDS011;2218;51.408;7.208;2023-08-08T13:41:35;1.03;;;0.93;;
4409;SDS011;2218;51.408;7.208;2023-08-08T13:44:02;0.80;;;0.70;;
4409;SDS011;2218;51.408;7.208;2023-08-08T13:46:30;1.33;;;0.80;;
4409;SDS011;2218;51.408;7.208;2023-08-08T13:48:57;0.90;;;0.90;;
4409;SDS011;2218;51.408;7.208;2023-08-08T13:51:24;1.13;;;0.80;;
4409;SDS011;2218;51.408;7.208;2023-08-08T13:53:52;0.80;;;0.77;;
4409;SDS011;2218;51.408;7.208;2023-08-08T13:56:19;2.40;;;0.90;;
4409;SDS011;2218;51.408;7.208;2023-08-08T13:58:46;2.40;;;1.27;;
4409;SDS011;2218;51.408;7.208;2023-08-08T14:01:13;0.80;;;0.80;;
4409;SDS011;2218;51.408;7.208;2023-08-08T14:03:40;0.80;;;0.80;;
4409;SDS011;2218;51.408;7.208;2023-08-08T14:06:07;1.20;;;1.00;;
4409;SDS011;2218;51.408;7.208;2023-08-08T14:08:34;0.80;;;0.80;;
4409;SDS011;2218;51.408;7.208;2023-08-08T14:11:02;0.83;;;0.83;;
4409;SDS011;2218;51.408;7.208;2023-08-08T14:13:29;1.00;;;0.80;;
4409;SDS011;2218;51.408;7.208;2023-08-08T14:15:56;1.03;;;0.70;;
4409;SDS011;2218;51.408;7.208;2023-08-08T14:18:23;1.30;;;0.80;;
4409;SDS011;2218;51.408;7.208;2023-08-08T14:20:50;1.50;;;0.80;;
4409;SDS011;2218;51.408;7.208;2023-08-08T14:23:17;0.93;;;0.83;;
4409;SDS011;2218;51.408;7.208;2023-08-08T14:25:44;2.00;;;0.80;;
4409;SDS011;2218;51.408;7.208;2023-08-08T14:28:12;1.10;;;1.00;;
4409;SDS011;2218;51.408;7.208;2023-08-08T14:30:39;0.83;;;0.67;;
4409;SDS011;2218;51.408;7.208;2023-08-08T14:33:06;1.73;;;0.80;;
4409;SDS011;2218;51.408;7.208;2023-08-08T14:35:33;0.80;;;0.70;;
4409;SDS011;2218;51.408;7.208;2023-08-08T14:38:00;0.80;;;0.70;;
4409;SDS011;2218;51.408;7.208;2023-08-08T14:40:27;0.77;;;0.70;;
4409;SDS011;2218;51.408;7.208;2023-08-08T14:42:54;0.90;;;0.70;;
4409;SDS011;2218;51.408;7.208;2023-08-08T14:45:22;0.87;;;0.70;;
4409;SDS011;2218;51.408;7.208;2023-08-08T14:47:49;1.33;;;0.73;;
4409;SDS011;2218;51.408;7.208;2023-08-08T14:50:16;1.00;;;0.73;;
4409;SDS011;2218;51.408;7.208;2023-08-08T14:52:43;0.80;;;0.70;;
4409;SDS011;2218;51.408;7.208;2023-08-08T14:55:11;0.80;;;0.80;;
4409;SDS011;2218;51.408;7.208;2023-08-08T14:57:37;0.83;;;0.70;;
4409;SDS011;2218;51.408;7.208;2023-08-08T15:00:05;1.47;;;0.90;;
4409;SDS011;2218;51.408;7.208;2023-08-08T15:02:35;2.13;;;0.80;;
4409;SDS011;2218;51.408;7.208;2023-08-08T15:05:03;0.90;;;0.90;;
4409;SDS011;2218;51.408;7.208;2023-08-08T15:07:30;1.67;;;0.80;;
4409;SDS011;2218;51.408;7.208;2023-08-08T15:09:57;1.03;;;0.80;;
4409;SDS011;2218;51.408;7.208;2023-08-08T15:12:24;0.80;;;0.70;;
4409;SDS011;2218;51.408;7.208;2023-08-08T15:14:51;0.70;;;0.70;;
4409;SDS011;2218;51.408;7.208;2023-08-08T15:17:18;3.13;;;0.90;;
4409;SDS011;2218;51.408;7.208;2023-08-08T15:19:46;2.07;;;0.90;;